createdAt,value
2022-08-21T00:01:29.324Z,15.80
2022-08-21T00:04:31.753Z,15.60
2022-08-21T00:07:33.982Z,15.50
2022-08-21T00:10:35.149Z,15.40
2022-08-21T00:13:37.720Z,15.40
2022-08-21T00:16:39.746Z,15.40
2022-08-21T00:19:41.235Z,15.30
2022-08-21T00:22:43.485Z,15.30
2022-08-21T00:25:45.727Z,15.40
2022-08-21T00:28:50.117Z,15.40
2022-08-21T00:31:51.267Z,15.40
2022-08-21T00:34:53.050Z,15.40
2022-08-21T00:37:54.604Z,15.20
2022-08-21T00:41:00.340Z,15.10
2022-08-21T00:44:21.025Z,15.10
2022-08-21T00:47:22.241Z,15.20
2022-08-21T00:50:29.259Z,15.20
2022-08-21T00:53:31.853Z,15.30
2022-08-21T00:56:34.166Z,15.30
2022-08-21T00:59:41.333Z,15.30
2022-08-21T01:02:42.821Z,15.10
2022-08-21T01:05:46.894Z,15.10
2022-08-21T01:08:48.423Z,15.10
2022-08-21T01:11:49.411Z,15.10
2022-08-21T01:14:50.615Z,15.10
2022-08-21T01:17:52.684Z,15.20
2022-08-21T01:21:27.886Z,15.20
2022-08-21T01:24:30.224Z,15.30
2022-08-21T01:27:31.487Z,15.30
2022-08-21T01:30:37.502Z,15.40
2022-08-21T01:33:38.957Z,15.50
2022-08-21T01:36:40.386Z,15.40
2022-08-21T01:39:44.017Z,15.50
2022-08-21T01:42:47.058Z,15.50
2022-08-21T01:45:47.980Z,15.50
2022-08-21T01:48:49.695Z,15.40
2022-08-21T01:51:50.872Z,15.30
2022-08-21T01:54:55.521Z,15.00
2022-08-21T01:57:59.972Z,15.00
2022-08-21T02:01:02.737Z,15.00
2022-08-21T02:04:04.563Z,14.90
2022-08-21T02:07:08.379Z,14.90
2022-08-21T02:10:20.305Z,14.80
2022-08-21T02:13:21.832Z,14.80
2022-08-21T02:16:23.292Z,14.70
2022-08-21T02:19:24.621Z,14.70
2022-08-21T02:22:25.637Z,14.60
2022-08-21T02:25:28.978Z,14.70
2022-08-21T02:28:30.894Z,14.50
2022-08-21T02:31:32.606Z,14.40
2022-08-21T02:34:33.338Z,14.30
2022-08-21T02:37:34.964Z,14.30
2022-08-21T02:40:40.241Z,14.30
2022-08-21T02:43:45.706Z,14.20
2022-08-21T02:46:46.579Z,14.20
2022-08-21T02:49:47.224Z,14.10
2022-08-21T02:52:51.802Z,14.00
2022-08-21T02:56:00.246Z,13.90
2022-08-21T02:59:01.342Z,14.20
2022-08-21T03:02:02.520Z,14.50
2022-08-21T03:05:05.704Z,14.50
2022-08-21T03:08:12.998Z,14.10
2022-08-21T03:11:16.323Z,14.10
2022-08-21T03:14:17.476Z,14.10
2022-08-21T03:17:18.363Z,14.20
2022-08-21T03:20:32.159Z,14.20
2022-08-21T03:23:33.827Z,14.40
2022-08-21T03:26:35.696Z,14.40
2022-08-21T03:29:36.543Z,14.40
2022-08-21T03:32:37.428Z,14.40
2022-08-21T03:35:38.685Z,14.20
2022-08-21T03:38:40.540Z,14.10
2022-08-21T03:41:41.858Z,14.00
2022-08-21T03:44:43.114Z,14.00
2022-08-21T03:48:01.880Z,14.00
2022-08-21T03:51:04.083Z,13.90
2022-08-21T03:54:05.148Z,13.90
2022-08-21T03:57:06.285Z,13.80
2022-08-21T04:00:10.149Z,13.90
2022-08-21T04:03:11.039Z,13.90
2022-08-21T04:06:12.412Z,14.00
2022-08-21T04:09:13.612Z,14.20
2022-08-21T04:12:14.693Z,14.30
2022-08-21T04:15:15.854Z,14.30
2022-08-21T04:18:17.981Z,14.30
2022-08-21T04:21:18.981Z,14.30
2022-08-21T04:24:25.190Z,14.30
2022-08-21T04:27:30.859Z,14.30
2022-08-21T04:30:31.934Z,14.30
2022-08-21T04:33:32.834Z,14.40
2022-08-21T04:36:34.818Z,14.50
2022-08-21T04:39:36.042Z,14.60
2022-08-21T04:42:50.727Z,14.60
2022-08-21T04:45:53.629Z,14.60
2022-08-21T04:48:55.544Z,14.60
2022-08-21T04:51:56.784Z,14.50
2022-08-21T04:54:57.738Z,14.50
2022-08-21T04:57:59.226Z,14.50
2022-08-21T05:01:03.286Z,14.60
2022-08-21T05:04:09.074Z,14.60
2022-08-21T05:07:42.368Z,14.70
2022-08-21T05:10:45.676Z,14.70
2022-08-21T05:13:54.990Z,14.50
2022-08-21T05:16:59.913Z,14.50
2022-08-21T05:20:00.862Z,14.50
2022-08-21T05:23:02.976Z,14.60
2022-08-21T05:26:05.433Z,14.70
2022-08-21T05:29:11.796Z,14.80
2022-08-21T05:32:15.919Z,14.80
2022-08-21T05:35:17.009Z,14.90
2022-08-21T05:38:18.558Z,14.90
2022-08-21T05:41:19.840Z,15.00
2022-08-21T05:44:20.869Z,15.10
2022-08-21T05:47:23.392Z,15.20
2022-08-21T05:50:24.847Z,15.20
2022-08-21T05:53:30.668Z,15.30
2022-08-21T05:56:31.468Z,15.50
2022-08-21T05:59:32.787Z,15.70
2022-08-21T06:02:33.726Z,15.80
2022-08-21T06:05:36.691Z,15.90
2022-08-21T06:08:38.767Z,16.00
2022-08-21T06:11:39.441Z,16.10
2022-08-21T06:14:43.078Z,16.30
2022-08-21T06:17:44.076Z,16.50
2022-08-21T06:20:45.562Z,16.60
2022-08-21T06:23:46.827Z,16.70
2022-08-21T06:26:47.628Z,16.80
2022-08-21T06:29:48.938Z,17.00
2022-08-21T06:32:50.098Z,17.20
2022-08-21T06:35:51.504Z,17.50
2022-08-21T06:38:52.289Z,17.70
2022-08-21T06:41:53.896Z,17.90
2022-08-21T06:45:02.133Z,17.90
2022-08-21T06:48:03.820Z,18.00
2022-08-21T06:51:05.751Z,18.10
2022-08-21T06:54:07.046Z,18.20
2022-08-21T06:57:08.176Z,18.20
2022-08-21T07:00:11.039Z,18.30
2022-08-21T07:03:31.491Z,18.50
2022-08-21T07:06:34.001Z,18.50
2022-08-21T07:09:35.050Z,18.90
2022-08-21T07:12:36.370Z,19.10
2022-08-21T07:15:37.672Z,19.40
2022-08-21T07:18:38.991Z,19.50
2022-08-21T07:21:40.209Z,19.60
2022-08-21T07:24:41.076Z,19.40
2022-08-21T07:27:42.159Z,19.50
2022-08-21T07:30:43.392Z,19.60
2022-08-21T07:33:45.968Z,20.00
2022-08-21T07:36:47.682Z,20.50
2022-08-21T07:39:50.622Z,20.40
2022-08-21T07:42:52.936Z,20.30
2022-08-21T07:45:55.097Z,20.10
2022-08-21T07:48:56.194Z,20.00
2022-08-21T07:51:57.844Z,20.00
2022-08-21T07:55:01.652Z,19.80
2022-08-21T07:58:05.213Z,19.80
2022-08-21T08:01:07.872Z,19.70
2022-08-21T08:04:08.950Z,19.80
2022-08-21T08:07:10.245Z,19.80
2022-08-21T08:10:12.730Z,20.20
2022-08-21T08:13:13.794Z,20.60
2022-08-21T08:16:15.090Z,20.70
2022-08-21T08:19:16.165Z,20.90
2022-08-21T08:22:20.463Z,21.10
2022-08-21T08:25:24.073Z,21.10
2022-08-21T08:28:26.269Z,21.00
2022-08-21T08:31:27.377Z,21.00
2022-08-21T08:34:28.640Z,21.00
2022-08-21T08:37:34.260Z,21.40
2022-08-21T08:40:50.675Z,21.50
2022-08-21T08:44:01.175Z,21.30
2022-08-21T08:47:03.310Z,21.70
2022-08-21T08:50:04.681Z,21.30
2022-08-21T08:53:13.564Z,21.90
2022-08-21T08:56:14.935Z,22.50
2022-08-21T08:59:31.765Z,22.60
2022-08-21T09:02:34.610Z,22.60
2022-08-21T09:06:26.198Z,23.00
2022-08-21T09:09:53.788Z,23.10
2022-08-21T09:13:21.848Z,23.30
2022-08-21T09:16:51.506Z,23.50
2022-08-21T09:20:33.209Z,23.80
2022-08-21T09:23:44.950Z,23.60
2022-08-21T09:27:07.774Z,23.70
2022-08-21T09:30:11.228Z,24.00
2022-08-21T09:33:17.085Z,24.10
2022-08-21T09:36:35.388Z,24.70
2022-08-21T09:39:45.563Z,24.80
2022-08-21T09:43:18.273Z,24.80
2022-08-21T09:46:26.353Z,25.20
2022-08-21T09:49:38.546Z,25.20
2022-08-21T09:52:49.943Z,25.80
2022-08-21T09:56:24.329Z,25.70
2022-08-21T09:59:37.046Z,26.30
2022-08-21T10:02:38.237Z,26.30
2022-08-21T10:05:41.458Z,26.60
2022-08-21T10:08:42.660Z,27.40
2022-08-21T10:11:59.680Z,27.30
2022-08-21T10:15:24.883Z,27.70
2022-08-21T10:19:15.606Z,28.10
2022-08-21T10:23:22.670Z,28.70
2022-08-21T10:26:58.020Z,28.90
2022-08-21T10:30:12.550Z,28.80
2022-08-21T10:34:22.151Z,28.50
2022-08-21T10:37:42.548Z,29.20
2022-08-21T10:41:22.610Z,29.20
2022-08-21T10:44:55.147Z,29.50
2022-08-21T10:48:05.068Z,29.70
2022-08-21T10:51:29.063Z,29.90
2022-08-21T10:55:00.636Z,30.00
2022-08-21T10:58:26.778Z,29.90
2022-08-21T11:01:41.302Z,29.70
2022-08-21T11:04:56.747Z,30.20
2022-08-21T11:08:23.692Z,30.80
2022-08-21T11:11:53.882Z,31.10
2022-08-21T11:15:32.834Z,31.10
2022-08-21T11:18:54.962Z,31.20
2022-08-21T11:22:18.573Z,31.50
2022-08-21T11:25:36.485Z,31.20
2022-08-21T11:29:24.787Z,31.60
2022-08-21T11:32:25.447Z,32.00
2022-08-21T11:36:05.171Z,32.10
2022-08-21T11:39:22.424Z,32.30
2022-08-21T11:42:51.607Z,30.50
2022-08-21T11:46:01.069Z,31.50
2022-08-21T11:49:41.535Z,31.70
2022-08-21T11:53:02.996Z,32.20
2022-08-21T11:56:15.997Z,31.50
2022-08-21T11:59:31.190Z,32.20
2022-08-21T12:02:42.386Z,32.40
2022-08-21T12:05:55.979Z,32.00
2022-08-21T12:09:09.718Z,32.60
2022-08-21T12:12:35.178Z,32.80
2022-08-21T12:15:36.491Z,33.10
2022-08-21T12:18:39.185Z,33.20
2022-08-21T12:21:58.344Z,33.10
2022-08-21T12:25:21.548Z,32.90
2022-08-21T12:28:25.764Z,32.70
2022-08-21T12:31:29.728Z,32.10
2022-08-21T12:34:39.081Z,33.20
2022-08-21T12:37:57.901Z,33.00
2022-08-21T12:41:07.270Z,32.30
2022-08-21T12:44:22.483Z,32.50
2022-08-21T12:47:37.273Z,32.90
2022-08-21T12:50:52.565Z,33.30
2022-08-21T12:53:58.309Z,33.10
2022-08-21T12:57:02.838Z,32.80
2022-08-21T13:00:13.047Z,32.30
2022-08-21T13:03:17.196Z,32.50
2022-08-21T13:06:21.528Z,33.00
2022-08-21T13:09:30.807Z,32.80
2022-08-21T13:12:34.130Z,32.40
2022-08-21T13:15:39.062Z,33.10
2022-08-21T13:19:06.569Z,33.50
2022-08-21T13:22:34.220Z,33.90
2022-08-21T13:25:38.712Z,33.60
2022-08-21T13:28:40.532Z,33.60
2022-08-21T13:31:53.928Z,32.90
2022-08-21T13:34:54.910Z,33.10
2022-08-21T13:37:57.692Z,33.40
2022-08-21T13:41:22.746Z,33.20
2022-08-21T13:44:35.421Z,32.80
2022-08-21T13:47:36.754Z,32.50
2022-08-21T13:50:40.428Z,33.20
2022-08-21T13:53:45.831Z,32.90
2022-08-21T13:56:47.913Z,33.80
2022-08-21T13:59:50.440Z,33.20
2022-08-21T14:03:00.783Z,33.70
2022-08-21T14:06:03.026Z,33.60
2022-08-21T14:09:22.920Z,33.40
2022-08-21T14:12:38.319Z,33.10
2022-08-21T14:15:40.177Z,33.20
2022-08-21T14:19:11.875Z,33.70
2022-08-21T14:22:44.960Z,34.10
2022-08-21T14:25:47.051Z,33.60
2022-08-21T14:28:48.225Z,34.60
2022-08-21T14:31:59.369Z,33.90
2022-08-21T14:35:00.638Z,34.20
2022-08-21T14:38:02.078Z,34.40
2022-08-21T14:41:22.645Z,34.20
2022-08-21T14:44:26.569Z,33.90
2022-08-21T14:47:27.605Z,34.40
2022-08-21T14:50:28.897Z,34.00
2022-08-21T14:53:30.144Z,33.60
2022-08-21T14:56:31.980Z,34.20
2022-08-21T14:59:34.255Z,34.20
2022-08-21T15:02:35.175Z,34.20
2022-08-21T15:05:35.907Z,34.00
2022-08-21T15:08:36.744Z,33.90
2022-08-21T15:11:41.990Z,33.40
2022-08-21T15:14:44.643Z,33.80
2022-08-21T15:17:48.298Z,33.60
2022-08-21T15:20:50.800Z,33.50
2022-08-21T15:23:51.708Z,33.10
2022-08-21T15:26:56.050Z,33.50
2022-08-21T15:29:57.337Z,33.10
2022-08-21T15:32:59.000Z,33.40
2022-08-21T15:36:00.161Z,32.70
2022-08-21T15:39:01.008Z,31.80
2022-08-21T15:42:10.372Z,31.60
2022-08-21T15:45:14.311Z,31.80
2022-08-21T15:48:15.420Z,31.50
2022-08-21T15:51:18.189Z,31.30
2022-08-21T15:54:19.441Z,31.00
2022-08-21T15:57:25.449Z,31.50
2022-08-21T16:00:27.053Z,31.50
2022-08-21T16:03:29.204Z,30.80
2022-08-21T16:06:37.494Z,30.80
2022-08-21T16:09:46.268Z,31.00
2022-08-21T16:13:16.244Z,30.60
2022-08-21T16:16:23.535Z,30.50
2022-08-21T16:19:25.022Z,30.40
2022-08-21T16:22:26.065Z,30.30
2022-08-21T16:25:44.859Z,30.30
2022-08-21T16:28:51.678Z,30.50
2022-08-21T16:31:53.657Z,29.50
2022-08-21T16:34:55.182Z,29.30
2022-08-21T16:37:56.035Z,29.30
2022-08-21T16:40:57.864Z,29.60
2022-08-21T16:44:01.315Z,29.50
2022-08-21T16:47:02.795Z,29.20
2022-08-21T16:50:05.587Z,29.10
2022-08-21T16:53:07.278Z,28.70
2022-08-21T16:56:10.638Z,28.70
2022-08-21T16:59:13.090Z,28.40
2022-08-21T17:02:38.452Z,27.70
2022-08-21T17:05:39.531Z,27.90
2022-08-21T17:08:40.826Z,28.00
2022-08-21T17:11:46.492Z,27.10
2022-08-21T17:14:49.454Z,26.80
2022-08-21T17:17:51.923Z,26.70
2022-08-21T17:20:53.760Z,26.00
2022-08-21T17:23:54.582Z,25.90
2022-08-21T17:26:57.606Z,25.60
2022-08-21T17:29:58.716Z,25.50
2022-08-21T17:33:01.242Z,25.30
2022-08-21T17:36:03.376Z,25.00
2022-08-21T17:39:05.318Z,24.60
2022-08-21T17:42:13.748Z,24.20
2022-08-21T17:45:19.074Z,23.80
2022-08-21T17:48:20.139Z,23.50
2022-08-21T17:51:26.344Z,23.30
2022-08-21T17:54:28.489Z,23.30
2022-08-21T17:57:35.463Z,23.10
2022-08-21T18:00:36.931Z,22.80
2022-08-21T18:03:38.492Z,22.50
2022-08-21T18:06:40.270Z,22.20
2022-08-21T18:09:41.674Z,22.10
2022-08-21T18:12:45.563Z,21.90
2022-08-21T18:15:51.548Z,21.60
2022-08-21T18:18:52.210Z,21.30
2022-08-21T18:21:55.182Z,21.20
2022-08-21T18:24:56.365Z,21.00
2022-08-21T18:28:08.477Z,20.90
2022-08-21T18:31:13.007Z,20.80
2022-08-21T18:34:35.025Z,20.70
2022-08-21T18:37:36.998Z,20.60
2022-08-21T18:40:46.829Z,20.60
2022-08-21T18:43:48.264Z,20.30
2022-08-21T18:46:58.043Z,20.10
2022-08-21T18:49:59.170Z,19.80
2022-08-21T18:53:00.194Z,19.70
2022-08-21T18:56:05.360Z,19.60
2022-08-21T18:59:06.935Z,19.70
2022-08-21T19:02:08.612Z,19.70
2022-08-21T19:05:14.084Z,19.70
2022-08-21T19:08:20.649Z,19.50
2022-08-21T19:11:25.233Z,19.40
2022-08-21T19:14:26.886Z,19.30
2022-08-21T19:17:31.774Z,19.20
2022-08-21T19:20:37.018Z,19.30
2022-08-21T19:23:38.338Z,19.30
2022-08-21T19:26:43.860Z,19.20
2022-08-21T19:29:45.153Z,19.20
2022-08-21T19:32:48.054Z,19.10
2022-08-21T19:35:52.494Z,18.80
2022-08-21T19:38:53.877Z,18.60
2022-08-21T19:41:58.967Z,18.50
2022-08-21T19:45:00.888Z,18.30
2022-08-21T19:48:02.199Z,18.10
2022-08-21T19:51:05.311Z,18.20
2022-08-21T19:54:19.903Z,18.30
2022-08-21T19:57:20.781Z,18.20
2022-08-21T20:00:22.542Z,18.00
2022-08-21T20:03:25.376Z,17.90
2022-08-21T20:06:27.099Z,17.80
2022-08-21T20:09:28.262Z,17.80
2022-08-21T20:12:29.206Z,17.90
2022-08-21T20:15:30.827Z,17.90
2022-08-21T20:18:34.731Z,18.00
2022-08-21T20:21:44.380Z,18.00
2022-08-21T20:24:46.785Z,17.90
2022-08-21T20:27:48.035Z,18.00
2022-08-21T20:30:48.835Z,17.90
2022-08-21T20:33:51.907Z,17.80
2022-08-21T20:36:53.427Z,18.00
2022-08-21T20:39:54.616Z,18.00
2022-08-21T20:42:59.547Z,18.00
2022-08-21T20:46:01.330Z,18.00
2022-08-21T20:49:02.723Z,17.60
2022-08-21T20:52:05.646Z,17.40
2022-08-21T20:55:19.697Z,17.50
2022-08-21T20:58:38.791Z,17.80
2022-08-21T21:01:40.164Z,18.00
2022-08-21T21:05:01.363Z,17.60
2022-08-21T21:08:39.168Z,17.00
2022-08-21T21:11:58.494Z,16.70
2022-08-21T21:15:11.657Z,16.70
2022-08-21T21:18:22.688Z,16.80
2022-08-21T21:21:35.779Z,16.90
2022-08-21T21:24:52.383Z,16.80
2022-08-21T21:28:07.737Z,16.70
2022-08-21T21:31:14.614Z,17.20
2022-08-21T21:34:17.073Z,17.30
2022-08-21T21:37:39.445Z,17.10
2022-08-21T21:40:58.642Z,17.00
2022-08-21T21:44:15.566Z,16.90
2022-08-21T21:47:47.151Z,16.70
2022-08-21T21:51:02.034Z,16.70
2022-08-21T21:54:59.005Z,16.60
2022-08-21T21:58:06.379Z,16.60
2022-08-21T22:01:38.123Z,16.40
2022-08-21T22:05:29.112Z,16.40
2022-08-21T22:09:12.437Z,16.30
2022-08-21T22:12:53.919Z,16.20
2022-08-21T22:15:56.385Z,16.20
2022-08-21T22:19:20.605Z,16.10
2022-08-21T22:22:26.882Z,16.10
2022-08-21T22:25:41.830Z,16.10
2022-08-21T22:28:48.911Z,16.00
2022-08-21T22:32:08.415Z,15.90
2022-08-21T22:35:26.128Z,16.00
2022-08-21T22:38:27.601Z,15.90
2022-08-21T22:41:32.182Z,16.10
2022-08-21T22:48:22.591Z,16.10
2022-08-21T22:51:36.584Z,16.10
2022-08-21T22:54:45.194Z,16.30
2022-08-21T22:57:46.839Z,16.50
2022-08-21T23:01:21.874Z,16.30
2022-08-21T23:04:25.969Z,16.30
2022-08-21T23:07:43.751Z,16.00
2022-08-21T23:10:56.583Z,15.70
2022-08-21T23:13:57.542Z,15.70
2022-08-21T23:17:15.957Z,15.80
2022-08-21T23:20:56.080Z,15.80
2022-08-21T23:24:21.960Z,15.70
2022-08-21T23:31:22.754Z,15.60
2022-08-21T23:34:35.352Z,15.30
2022-08-21T23:38:15.791Z,15.30
2022-08-21T23:41:42.900Z,15.20
2022-08-21T23:49:05.806Z,15.20
2022-08-21T23:52:20.039Z,15.10
2022-08-21T23:55:41.454Z,15.10
2022-08-21T23:58:51.363Z,15.00
